Garibaldi, OR (97118)

08:31 PST le 02 Mars 2015 (GMT -0800)
bay view-pacific coast | Change Station
CLOSE
Current Station
Stations météorologiques personnelles
Location: Garibaldi, OR
Altitude: 50 ft
Stations météo à proximité

Alt. 50 ft 45.56 °N, 123.91 °W | Updated 1 minute ago

Couvert
Couvert
44.4 ° F
Paraît 44 ° F
N
3.0
Vent Variable Vent de Est
Gusts 3.0 mph

Aujourd'hui
Haut(e) -- | Bas -- ° F
--% Risque de précip.
Hier
Haut(e) -- | Bas -- ° F
Precip. -- pouce
6:52 AM 6:03 PM
Lune gibbeuse croissante, 92% visible
Pression 29.97 pouce
Visibilité 10.0 Miles terrestres
Nuages Nuages épars 400 ft
Nuageux 3600 ft
Refroidissement éolien 44 ° F
Point de rosée 43 ° F
Humidité 95%
Précipitations 0.02 pouce
Profondeur de la couche neigeuse Non disponible.
UV 0 sur 12
Pollen 5.60 sur 12
Qualité de l'air Non disponible.
Flu Activity Non disponible.
METAR KTMK 021615Z AUTO 00000KT 10SM SCT004 BKN036 07/06 A2997 RMK AO2

More Conditions Fewer Conditions

Pression 29.97 pouce
Visibilité 10.0 Miles terrestres
Nuages Nuages épars 400 ft
Nuageux 3600 ft
Refroidissement éolien 44 ° F
Point de rosée 43 ° F
Humidité 95%
Précipitations 0.02 pouce
Profondeur de la couche neigeuse Non disponible.
UV 0 sur 12
Pollen 5.60 sur 12
Qualité de l'air Non disponible.
Flu Activity Non disponible.
METAR KTMK 021615Z AUTO 00000KT 10SM SCT004 BKN036 07/06 A2997 RMK AO2

More Conditions Fewer Conditions

10-Day Weather Forecast

Almanac

Astronomie

Mar. 02, 2015 Lever Coucher
Temps réel
Crépuscule civil
Crépuscule nautique
Crépuscule astronomique
Lune
Durée de lumière visible
Longueur du jour
Tomorrow will be .
, % of the Moon is Illuminated

Extrêmes aujourd'hui

State Highs State Lows

Community

WunderPhotos

Upload Photos

1,801,840 Photos téléchargées !

WunderBlogs® & News

Nearby

Qualité de l'air

  Qualité de l'air Indice de la qualité de l'air Polluant
Not available.

Épaisseur de neige

Station Depth Altitude

Activité sismique

Ville Distance Mag. Time & Date
Minimum magnitude displayed is 2.5.

Températures des eaux côtières

Lieu Température

Stations météo à proximité